Huntsville International Carl T Jones Field
KHSV : now visible

Airfield :











YOU CAN JOIN US ON...

 
LOGIN :

Register | Disclaimer

   EN    FR    IT 

 









Legend :    VFR   Marginal VFR   IFR   Intensive IFR   Very Intensive IFR
Visi :
Ceiling :
>= 8 km
>= 3000ft
5 to 8 km
1000 to 3000 ft
1500m to 5 km
500 to 1000 ft
800 to 1500m
200 to 500 ft
< 800m
< 200 ft
Symbols :   Thunderstorms  Fog  Heavy snow  Heavy precipitations  Wind > 20 kt






- Airport Elevation : 629 ft
- IATA code : HSV


KHSV - Huntsville International Carl T Jones Field

CURRENT METAR :
  • 190253Z 31008KT 10SM FEW017 FEW090 BKN200 12/11 A3013 RMK AO2 SLP202 T01220106 51009

EXPIRED METARs :
  • 190235Z 29010KT 9SM FEW017 SCT090 BKN150 12/11 A3013 RMK AO2 T01220111
  • 190227Z 28005KT 3/4SM R18R/P6000FT BR FEW017 SCT090 11/11 A3013 RMK AO2 T01110106
  • 190153Z 25003KT 10SM FEW012 SCT029 OVC100 12/11 A3013 RMK AO2 SLP203 T01170111
  • 190112Z 24004KT 10SM FEW010 SCT016 OVC090 12/12 A3012 RMK AO2 T01220117
  • 190053Z 00000KT 10SM SCT010 BKN017 OVC100 13/13 A3012 RMK AO2 SLP197 T01280128
  • 190040Z 30003KT 10SM FEW008 BKN014 OVC080 12/12 A3011 RMK AO2 T01220122
  • 190029Z 29003KT 10SM SCT009 BKN017 OVC090 12/12 A3011 RMK AO2 T01220122
  • 182353Z 25004KT 10SM SCT025 BKN090 OVC100 13/13 A3010 RMK AO2 SLP192 60007 T01280128 10139 20111 51010

TAF KHSV
Valid from the 19 at 03:00 until the 20 at 00:00 UTC


190249Z 1903/1924 29010KT P6SM SCT015 SCT090 BKN150
FM190400 30009KT P6SM SCT025 BKN100
FM190500 33012G19KT P6SM SCT250
FM191400 34014G21KT P6SM SKC



MET'MAP, your aeronautical weather chart ! - Copyright ORBIFLY December 2007 - Disclaimer

ORBIFLY MET'MAP TEAM :

Programming & Development : Alexandra Zaïnal
Concept & original design : Baudouin d'Aumeries
Assistance for programming : Marc-Olivier Méhu
Technical & hardware support : Manuel Goepfert

Contact : metmap@orbifly.com




SOURCES & CREDITS :

   NOAA       Earth
Advisory